Etusivu
METAR-TAF:

METAR-TAF

Lentoasemat :

Smith Field

Siloam Springs, Arkansas, Yhdysvallat

Leveyspiiri: 36-12N, Pituuspiiri: 094-29W, korkeus merenpinnasta: 300 m

Tämänhetkinen sää

Tämä raportti tehtiin 58 minuuttia sitten, kello 21.56 UTC
Tuuli 11 kn lounaasta
Lämpötila 36°C
Kosteus 42%
Ilmanpaine 1014 hPa
Näkyvyys: 16.1 km
Muutamia pilviä 6000 ft:n korkeudessa

METAR: KSLG 242156Z AUTO 22011KT 10SM FEW060 36/21 A2994 RMK AO2 SLP121 T03610211 PNO $

Aika: 17:54 (22:54 UTC)


TAF: puuttuu

Säähavainnot ja -ennusteet yli 4000 lentoasemalta (METAR- ja TAF-raportit).

Käytössä olevat sääasemat on merkitty karttaan keltaisilla ja punaisilla pisteillä.

Aseta hiiri pisteen päälle nähdäksesi sääaseman nimen.

Klikkaa sitten nähdäksesi säähavainnot ja -ennusteet.

Kartan vaihtaminen: klikkaa mustalla rastilla varustettuja vihreitä pisteitä, niin voit zoomata sisään; viivalla varustettua vihreää pistettä, niin voit zoomata ulos tai vihreitä nuolia, niin pääset viereisille kartoille.


METAR-TAF: